createdAt,value
2022-10-23T00:04:52.512Z,8.57
2022-10-23T00:09:54.474Z,8.50
2022-10-23T00:14:56.503Z,8.43
2022-10-23T00:19:58.679Z,8.42
2022-10-23T00:25:00.600Z,8.39
2022-10-23T00:30:03.776Z,8.40
2022-10-23T00:35:06.121Z,8.34
2022-10-23T00:40:08.498Z,8.35
2022-10-23T00:45:12.728Z,8.35
2022-10-23T00:50:14.955Z,8.29
2022-10-23T00:55:18.408Z,8.28
2022-10-23T01:00:25.168Z,8.29
2022-10-23T01:05:40.444Z,8.29
2022-10-23T01:10:45.791Z,8.24
2022-10-23T01:15:47.674Z,8.18
2022-10-23T01:21:04.765Z,8.08
2022-10-23T01:26:15.699Z,7.98
2022-10-23T01:31:35.617Z,7.93
2022-10-23T01:36:40.634Z,7.85
2022-10-23T01:41:46.482Z,7.82
2022-10-23T01:46:54.032Z,7.77
2022-10-23T01:51:58.706Z,7.68
2022-10-23T01:57:01.560Z,7.62
2022-10-23T02:02:06.800Z,7.53
2022-10-23T02:07:09.020Z,7.35
2022-10-23T02:12:19.329Z,7.17
2022-10-23T02:17:42.980Z,7.02
2022-10-23T02:23:03.471Z,6.87
2022-10-23T02:28:08.039Z,6.77
2022-10-23T02:33:17.872Z,6.65
2022-10-23T02:38:28.709Z,6.57
2022-10-23T02:43:36.964Z,6.48
2022-10-23T02:48:43.229Z,6.39
2022-10-23T02:54:00.906Z,6.35
2022-10-23T02:59:27.915Z,6.34
2022-10-23T03:04:30.889Z,6.28
2022-10-23T03:09:32.784Z,6.20
2022-10-23T03:14:34.749Z,6.19
2022-10-23T03:19:37.725Z,6.17
2022-10-23T03:24:40.249Z,6.16
2022-10-23T03:29:42.934Z,6.13
2022-10-23T03:34:44.946Z,6.02
2022-10-23T03:39:46.873Z,6.01
2022-10-23T03:44:49.576Z,5.98
2022-10-23T03:49:53.613Z,5.91
2022-10-23T03:54:55.598Z,5.80
2022-10-23T03:59:58.649Z,5.75
2022-10-23T04:05:05.545Z,5.77
2022-10-23T04:10:08.817Z,5.67
2022-10-23T04:15:11.004Z,5.72
2022-10-23T04:20:13.081Z,5.72
2022-10-23T04:25:16.645Z,5.70
2022-10-23T04:30:19.390Z,5.73
2022-10-23T04:35:22.046Z,5.78
2022-10-23T04:40:24.143Z,5.95
2022-10-23T04:45:28.719Z,6.14
2022-10-23T04:50:30.821Z,6.40
2022-10-23T04:56:01.672Z,6.83
2022-10-23T05:01:23.027Z,7.30
2022-10-23T05:06:25.151Z,7.59
2022-10-23T05:11:50.741Z,7.56
2022-10-23T05:17:00.941Z,7.85
2022-10-23T05:22:04.266Z,8.25
2022-10-23T05:27:21.087Z,8.30
2022-10-23T05:32:24.856Z,8.01
2022-10-23T05:37:28.279Z,7.77
2022-10-23T05:42:41.813Z,7.65
2022-10-23T05:47:46.378Z,7.56
2022-10-23T05:53:02.764Z,7.49
2022-10-23T05:58:09.226Z,7.46
2022-10-23T06:03:34.174Z,7.43
2022-10-23T06:08:38.629Z,7.46
2022-10-23T06:13:43.088Z,7.57
2022-10-23T06:18:46.198Z,7.73
2022-10-23T06:23:50.716Z,7.85
2022-10-23T06:28:55.844Z,7.94
2022-10-23T06:33:58.903Z,7.98
2022-10-23T06:39:01.587Z,8.05
2022-10-23T06:44:23.483Z,8.11
2022-10-23T06:49:29.765Z,8.17
2022-10-23T06:54:33.560Z,8.21
2022-10-23T06:59:54.870Z,8.18
2022-10-23T07:04:56.925Z,8.42
2022-10-23T07:09:58.950Z,8.55
2022-10-23T07:15:15.886Z,8.68
2022-10-23T07:20:18.669Z,8.90
2022-10-23T07:25:24.749Z,9.13
2022-10-23T07:30:27.613Z,9.22
2022-10-23T07:35:33.067Z,9.16
2022-10-23T07:40:42.714Z,9.10
2022-10-23T07:45:49.692Z,8.98
2022-10-23T07:51:09.097Z,9.09
2022-10-23T07:56:22.489Z,9.19
2022-10-23T08:01:50.485Z,9.22
2022-10-23T08:06:56.181Z,9.15
2022-10-23T08:11:59.424Z,9.10
2022-10-23T08:17:03.309Z,9.03
2022-10-23T08:22:23.507Z,9.04
2022-10-23T08:27:26.344Z,9.18
2022-10-23T08:32:31.560Z,9.21
2022-10-23T08:37:37.851Z,9.26
2022-10-23T08:42:42.808Z,9.35
2022-10-23T08:47:48.252Z,9.37
2022-10-23T08:53:25.100Z,9.37
2022-10-23T08:58:42.744Z,9.22
2022-10-23T09:03:45.743Z,8.99
2022-10-23T09:08:48.517Z,8.92
2022-10-23T09:14:14.364Z,9.05
2022-10-23T09:19:17.794Z,9.27
2022-10-23T09:24:22.107Z,9.39
2022-10-23T09:29:28.755Z,9.43
2022-10-23T09:34:31.491Z,9.45
2022-10-23T09:39:34.973Z,9.29
2022-10-23T09:44:48.119Z,9.20
2022-10-23T09:49:52.223Z,9.16
2022-10-23T09:54:55.881Z,9.23
2022-10-23T10:00:02.393Z,9.15
2022-10-23T10:05:28.079Z,9.04
2022-10-23T10:10:37.975Z,8.97
2022-10-23T10:15:58.560Z,8.80
2022-10-23T10:21:20.639Z,8.74
2022-10-23T10:26:34.559Z,8.75
2022-10-23T10:31:55.123Z,8.72
2022-10-23T10:37:02.074Z,8.72
2022-10-23T10:42:42.984Z,8.66
2022-10-23T10:47:47.901Z,8.69
2022-10-23T10:52:55.796Z,8.69
2022-10-23T10:58:00.177Z,8.69
2022-10-23T11:03:20.770Z,8.64
2022-10-23T11:08:56.167Z,8.61
2022-10-23T11:14:02.281Z,8.58
2022-10-23T11:19:14.149Z,8.57
2022-10-23T11:24:31.271Z,8.46
2022-10-23T11:29:40.965Z,8.51
2022-10-23T11:34:45.625Z,8.44
2022-10-23T11:39:59.950Z,8.31
2022-10-23T11:45:01.916Z,8.26
2022-10-23T11:50:08.401Z,8.23
2022-10-23T11:55:21.736Z,8.17
2022-10-23T12:00:23.861Z,8.24
2022-10-23T12:05:45.798Z,8.29
2022-10-23T12:10:55.579Z,8.45
2022-10-23T12:16:00.129Z,8.53
2022-10-23T12:21:04.663Z,8.51
2022-10-23T12:26:12.735Z,8.48
2022-10-23T12:31:29.287Z,8.52
2022-10-23T12:36:45.629Z,8.52
2022-10-23T12:41:47.679Z,8.58
2022-10-23T12:46:51.024Z,8.54
2022-10-23T12:51:57.576Z,8.43
2022-10-23T12:57:00.132Z,8.37
2022-10-23T13:02:02.338Z,8.32
2022-10-23T13:07:04.513Z,8.35
2022-10-23T13:12:09.036Z,8.39
2022-10-23T13:17:12.035Z,8.41
2022-10-23T13:22:19.695Z,8.41
2022-10-23T13:27:26.097Z,8.46
2022-10-23T13:32:29.796Z,8.42
2022-10-23T13:37:31.831Z,8.39
2022-10-23T13:42:34.031Z,8.36
2022-10-23T13:47:35.907Z,8.35
2022-10-23T13:52:37.804Z,8.41
2022-10-23T13:57:39.752Z,8.44
2022-10-23T14:02:42.476Z,8.43
2022-10-23T14:07:45.052Z,8.47
2022-10-23T14:12:47.736Z,8.45
2022-10-23T14:17:49.955Z,8.43
2022-10-23T14:22:51.916Z,8.44
2022-10-23T14:32:57.554Z,8.46
2022-10-23T14:37:59.525Z,8.47
2022-10-23T14:43:01.480Z,8.47
2022-10-23T14:48:03.467Z,8.51
2022-10-23T14:53:05.494Z,8.58
2022-10-23T14:58:07.583Z,8.63
2022-10-23T15:03:09.531Z,8.61
2022-10-23T15:08:11.572Z,8.60
2022-10-23T15:13:13.651Z,8.56
2022-10-23T15:18:15.633Z,8.55
2022-10-23T15:23:17.558Z,8.57
2022-10-23T15:28:19.482Z,8.61
2022-10-23T15:33:21.846Z,8.61
2022-10-23T15:38:24.583Z,8.67
2022-10-23T15:43:26.639Z,8.72
2022-10-23T15:48:28.558Z,8.74
2022-10-23T15:53:30.617Z,8.66
2022-10-23T15:58:32.682Z,8.74
2022-10-23T16:03:35.101Z,8.71
2022-10-23T16:08:37.114Z,8.69
2022-10-23T16:13:39.118Z,8.70
2022-10-23T16:18:41.472Z,8.74
2022-10-23T16:23:43.400Z,8.69
2022-10-23T16:28:47.235Z,8.70
2022-10-23T16:33:50.051Z,8.63
2022-10-23T16:38:52.049Z,8.71
2022-10-23T16:43:58.929Z,8.77
2022-10-23T16:49:21.084Z,8.83
2022-10-23T16:54:23.025Z,8.91
2022-10-23T16:59:24.928Z,9.02
2022-10-23T17:04:26.798Z,9.02
2022-10-23T17:09:31.355Z,9.06
2022-10-23T17:14:33.417Z,9.08
2022-10-23T17:19:45.452Z,9.12
2022-10-23T17:24:51.477Z,9.13
2022-10-23T17:29:55.980Z,9.11
2022-10-23T17:34:57.960Z,9.12
2022-10-23T17:40:02.575Z,9.13
2022-10-23T17:45:05.678Z,9.13
2022-10-23T17:50:09.616Z,9.13
2022-10-23T17:55:12.670Z,9.12
2022-10-23T18:00:16.277Z,9.11
2022-10-23T18:05:18.226Z,9.09
2022-10-23T18:10:20.222Z,9.11
2022-10-23T18:15:22.252Z,9.11
2022-10-23T18:20:24.181Z,9.16
2022-10-23T18:25:26.141Z,9.15
2022-10-23T18:30:28.095Z,9.17
2022-10-23T18:35:33.398Z,9.21
2022-10-23T18:40:36.349Z,9.23
2022-10-23T18:45:42.039Z,9.28
2022-10-23T18:50:43.934Z,9.28
2022-10-23T18:55:49.435Z,9.26
2022-10-23T19:00:51.473Z,9.29
2022-10-23T19:05:53.944Z,9.34
2022-10-23T19:10:57.498Z,9.36
2022-10-23T19:15:59.586Z,9.38
2022-10-23T19:21:04.537Z,9.36
2022-10-23T19:26:09.973Z,9.38
2022-10-23T19:31:12.223Z,9.36
2022-10-23T19:36:14.667Z,9.29
2022-10-23T19:41:18.242Z,9.22
2022-10-23T19:46:20.256Z,9.25
2022-10-23T19:51:22.159Z,9.27
2022-10-23T19:56:24.676Z,9.23
2022-10-23T20:01:26.876Z,9.23
2022-10-23T20:06:31.643Z,9.23
2022-10-23T20:11:33.754Z,9.22
2022-10-23T20:16:37.122Z,9.20
2022-10-23T20:21:40.732Z,9.17
2022-10-23T20:26:45.237Z,9.13
2022-10-23T20:31:47.669Z,9.17
2022-10-23T20:36:49.830Z,9.15
2022-10-23T20:41:52.469Z,9.18
2022-10-23T20:46:54.887Z,9.28
2022-10-23T20:51:57.051Z,9.35
2022-10-23T20:56:59.020Z,9.40
2022-10-23T21:02:00.998Z,9.46
2022-10-23T21:07:11.424Z,9.44
2022-10-23T21:12:15.795Z,9.40
2022-10-23T21:17:18.775Z,9.39
2022-10-23T21:22:20.715Z,9.42
2022-10-23T21:27:22.710Z,9.42
2022-10-23T21:32:24.671Z,9.40
2022-10-23T21:37:26.614Z,9.41
2022-10-23T21:47:33.080Z,9.42
2022-10-23T21:52:35.013Z,9.36
2022-10-23T21:57:36.921Z,9.32
2022-10-23T22:02:38.888Z,9.20
2022-10-23T22:07:40.995Z,9.27
2022-10-23T22:12:43.062Z,9.25
2022-10-23T22:17:45.143Z,9.23
2022-10-23T22:22:47.240Z,9.25
2022-10-23T22:27:49.149Z,9.29
2022-10-23T22:32:51.176Z,9.32
2022-10-23T22:37:53.117Z,9.32
2022-10-23T22:42:55.086Z,9.32
2022-10-23T22:47:57.112Z,9.32
2022-10-23T22:52:59.044Z,9.30
2022-10-23T22:58:00.958Z,9.34
2022-10-23T23:03:03.138Z,9.38
2022-10-23T23:08:05.246Z,9.42
2022-10-23T23:13:07.697Z,9.41
2022-10-23T23:18:09.683Z,9.36
2022-10-23T23:23:14.356Z,9.31
2022-10-23T23:28:17.878Z,9.28
2022-10-23T23:33:19.842Z,9.20
2022-10-23T23:38:21.801Z,9.10
2022-10-23T23:43:23.779Z,9.01
2022-10-23T23:48:25.946Z,8.99
2022-10-23T23:53:27.913Z,8.93
2022-10-23T23:58:29.974Z,8.87
